Time;durP1;ratioP1;P1;durP2;ratioP2;P2;SDS_P1;SDS_P2;PMS_P1;PMS_P2;Temp;Humidity;BMP_temperature;BMP_pressure;BME280_temperature;BME280_humidity;BME280_pressure;Samples;Min_cycle;Max_cycle;Signal;HPM_P1;HPM_P2
2021/07/21 00:00:52;;;;;;;11.23;5.90;;;20.60;64.60;;;;;;5045104;28;20045;-87
2021/07/21 00:03:19;;;;;;;;;;;20.60;64.80;;;;;;5059999;28;20024;-87
2021/07/21 00:05:46;;;;;;;8.48;5.20;;;20.50;63.90;;;;;;5043323;28;19931;-88
2021/07/21 00:08:12;;;;;;;14.00;6.38;;;20.50;64.70;;;;;;5063210;28;20029;-88
2021/07/21 00:10:38;;;;;;;9.23;5.53;;;20.50;64.60;;;;;;5057820;28;20013;-86
2021/07/21 00:16:02;;;;;;;8.60;4.93;;;20.40;64.70;;;;;;5057074;28;20019;-89
2021/07/21 00:18:34;;;;;;;6.53;5.18;;;20.40;64.80;;;;;;5062303;28;20044;-88
2021/07/21 00:21:00;;;;;;;7.43;5.22;;;20.40;65.00;;;;;;5065198;28;20167;-89
2021/07/21 00:23:27;;;;;;;9.10;5.13;;;20.30;65.20;;;;;;5054646;28;20535;-88
2021/07/21 00:25:53;;;;;;;10.00;4.80;;;20.30;65.40;;;;;;5062948;28;20367;-87
2021/07/21 00:28:19;;;;;;;9.45;5.10;;;20.30;65.50;;;;;;5053924;28;20265;-87
2021/07/21 00:30:46;;;;;;;8.38;4.93;;;20.30;65.60;;;;;;5060245;28;20001;-87
2021/07/21 00:33:12;;;;;;;7.03;4.70;;;20.20;65.70;;;;;;5096252;28;20036;-85
2021/07/21 00:35:38;;;;;;;10.90;4.90;;;20.20;65.80;;;;;;5073564;28;20024;-87
2021/07/21 00:38:04;;;;;;;8.18;5.82;;;20.20;65.80;;;;;;5049249;28;20029;-88
2021/07/21 00:40:30;;;;;;;13.07;4.65;;;20.20;65.90;;;;;;5071623;28;20368;-88
2021/07/21 00:42:57;;;;;;;7.15;4.65;;;20.10;65.80;;;;;;5061919;28;20029;-87
2021/07/21 00:45:23;;;;;;;5.50;4.70;;;20.10;66.00;;;;;;5042906;28;20143;-86
2021/07/21 00:47:48;;;;;;;11.93;4.03;;;20.10;66.00;;;;;;5057250;28;20482;-88
2021/07/21 00:50:15;;;;;;;8.48;4.68;;;20.00;66.20;;;;;;5059732;28;20029;-87
2021/07/21 00:52:42;;;;;;;9.13;4.00;;;20.00;66.30;;;;;;5071475;28;20032;-86
2021/07/21 00:55:10;;;;;;;;;;;20.00;66.50;;;;;;5059060;28;20109;-89
2021/07/21 00:57:37;;;;;;;10.82;4.53;;;19.90;65.80;;;;;;5059640;28;19923;-87
2021/07/21 01:00:12;;;;;;;11.02;3.75;;;19.80;66.70;;;;;;5060195;28;20486;-88
2021/07/21 01:02:38;;;;;;;7.32;3.85;;;19.80;67.00;;;;;;5060769;28;20021;-87
2021/07/21 01:05:09;;;;;;;11.63;4.43;;;19.80;67.20;;;;;;5038858;28;20025;-86
2021/07/21 01:07:39;;;;;;;5.82;4.03;;;19.80;67.20;;;;;;5039884;28;20029;-88
2021/07/21 01:10:07;;;;;;;9.48;4.35;;;19.80;67.40;;;;;;5057863;28;20111;-87
2021/07/21 01:12:37;;;;;;;6.63;4.07;;;19.70;67.40;;;;;;5047738;28;20032;-87
2021/07/21 01:15:12;;;;;;;11.75;4.40;;;19.70;67.80;;;;;;5068058;28;20053;-86
2021/07/21 01:17:51;;;;;;;9.57;4.93;;;19.70;67.80;;;;;;5049502;28;20033;-88
2021/07/21 01:20:20;;;;;;;9.57;5.10;;;19.70;67.80;;;;;;5058056;28;20045;-86
2021/07/21 01:22:50;;;;;;;10.13;4.72;;;19.60;68.00;;;;;;5059361;28;20025;-86
2021/07/21 01:25:28;;;;;;;6.75;4.18;;;19.60;68.40;;;;;;5040988;28;20107;-87
2021/07/21 01:28:00;;;;;;;7.28;5.25;;;19.60;68.50;;;;;;5058658;28;20043;-87
2021/07/21 01:30:30;;;;;;;8.25;4.40;;;19.50;68.80;;;;;;5039650;28;20482;-87
2021/07/21 01:33:07;;;;;;;7.65;4.60;;;19.50;69.20;;;;;;5058015;28;20047;-86
2021/07/21 01:35:51;;;;;;;18.17;4.55;;;19.50;69.30;;;;;;5056076;28;20017;-87
2021/07/21 01:38:31;;;;;;;7.78;3.95;;;19.50;69.40;;;;;;5038505;28;20025;-87
2021/07/21 01:41:01;;;;;;;7.47;4.47;;;19.50;69.70;;;;;;5038662;28;20108;-87
2021/07/21 01:43:33;;;;;;;8.93;4.72;;;19.50;69.70;;;;;;5055962;28;20079;-87
2021/07/21 01:46:01;;;;;;;7.90;4.53;;;19.50;69.80;;;;;;5025347;28;20112;-88
2021/07/21 01:48:31;;;;;;;6.85;5.32;;;19.40;69.90;;;;;;5038399;28;20029;-86
2021/07/21 01:50:59;;;;;;;9.30;4.93;;;19.50;70.20;;;;;;5038291;28;20372;-87
2021/07/21 01:53:28;;;;;;;10.70;5.00;;;19.50;70.20;;;;;;5055315;28;20116;-87
2021/07/21 01:55:55;;;;;;;6.50;3.85;;;19.40;70.30;;;;;;5054872;28;20077;-86
2021/07/21 01:58:23;;;;;;;6.50;4.32;;;19.40;70.50;;;;;;5045046;28;20037;-86
2021/07/21 02:00:51;;;;;;;5.97;4.13;;;19.40;70.60;;;;;;5055059;28;20025;-86
2021/07/21 02:03:20;;;;;;;9.35;4.32;;;19.40;70.90;;;;;;5066385;28;20025;-86
2021/07/21 02:05:48;;;;;;;6.10;3.92;;;19.40;70.80;;;;;;5051638;28;20115;-87
2021/07/21 02:08:19;;;;;;;9.00;4.40;;;19.40;71.00;;;;;;5055354;28;20017;-87
2021/07/21 02:10:46;;;;;;;8.45;4.00;;;19.40;70.80;;;;;;5037851;28;20457;-86
2021/07/21 02:13:13;;;;;;;6.55;4.30;;;19.50;70.90;;;;;;5050536;28;20045;-87
2021/07/21 02:15:40;;;;;;;10.40;4.55;;;19.50;70.80;;;;;;5046821;28;20017;-87
2021/07/21 02:18:07;;;;;;;9.82;5.15;;;19.40;70.80;;;;;;5037378;28;20070;-86
2021/07/21 02:20:34;;;;;;;6.35;4.97;;;19.50;70.80;;;;;;5037588;28;20402;-87
2021/07/21 02:23:00;;;;;;;9.35;5.10;;;19.50;70.80;;;;;;5055360;28;20033;-87
2021/07/21 02:25:28;;;;;;;8.90;5.35;;;19.50;70.80;;;;;;5058273;28;20433;-87
2021/07/21 02:27:55;;;;;;;8.57;4.80;;;19.50;70.80;;;;;;5088054;28;20428;-87
2021/07/21 02:30:21;;;;;;;12.40;5.10;;;19.60;70.90;;;;;;5078000;28;20027;-87
2021/07/21 02:33:05;;;;;;;11.23;4.93;;;19.60;70.60;;;;;;5054634;28;20060;-87
2021/07/21 02:35:32;;;;;;;6.78;4.72;;;19.60;70.80;;;;;;5063927;28;20025;-87
2021/07/21 02:37:59;;;;;;;9.00;4.82;;;19.60;70.70;;;;;;5055265;28;20021;-87
2021/07/21 02:40:25;;;;;;;8.35;4.80;;;19.60;70.60;;;;;;5037608;28;20021;-87
2021/07/21 02:42:52;;;;;;;11.40;5.37;;;19.60;70.60;;;;;;5055447;28;20486;-88
2021/07/21 02:45:18;;;;;;;9.57;5.27;;;19.70;70.70;;;;;;5059410;28;20111;-88
2021/07/21 02:47:44;;;;;;;6.78;4.55;;;19.70;70.40;;;;;;5048372;28;20032;-88
2021/07/21 02:50:12;;;;;;;10.20;4.88;;;19.70;70.30;;;;;;5054713;28;20031;-86
2021/07/21 02:53:04;;;;;;;9.75;5.22;;;19.70;70.50;;;;;;5063269;28;20063;-88
2021/07/21 02:55:34;;;;;;;11.95;5.43;;;19.70;70.40;;;;;;5050752;28;20028;-87
2021/07/21 02:58:18;;;;;;;7.35;5.03;;;19.80;71.40;;;;;;5048801;28;20120;-86
2021/07/21 03:00:45;;;;;;;8.73;4.93;;;19.90;70.30;;;;;;5061325;28;20020;-86
2021/07/21 03:03:15;;;;;;;9.30;3.95;;;20.10;69.70;;;;;;5065621;28;20024;-88
2021/07/21 03:05:43;;;;;;;8.98;4.80;;;20.20;68.40;;;;;;5054189;28;20055;-86
2021/07/21 03:08:11;;;;;;;10.85;4.20;;;20.30;68.10;;;;;;5055740;28;20021;-89
2021/07/21 03:10:39;;;;;;;;;;;20.40;67.90;;;;;;5046155;28;20088;-88
2021/07/21 03:13:19;;;;;;;14.23;4.72;;;20.50;67.70;;;;;;5062667;28;19988;-86
2021/07/21 03:15:47;;;;;;;6.55;4.80;;;20.60;67.20;;;;;;5076260;28;20471;-89
2021/07/21 03:18:17;;;;;;;8.48;4.82;;;20.70;66.60;;;;;;5064328;28;20025;-87
2021/07/21 03:20:44;;;;;;;7.90;4.72;;;20.70;66.50;;;;;;5071774;28;20048;-86
2021/07/21 03:23:12;;;;;;;8.45;4.20;;;20.60;66.30;;;;;;5065693;28;20381;-86
2021/07/21 03:25:40;;;;;;;5.47;4.05;;;20.60;66.10;;;;;;5051746;28;20020;-87
2021/07/21 03:28:05;;;;;;;;;;;20.60;65.90;;;;;;5056479;28;20061;-87
2021/07/21 03:30:33;;;;;;;6.93;4.30;;;20.50;65.50;;;;;;5058450;28;19909;-90
2021/07/21 03:33:00;;;;;;;;;;;20.50;65.50;;;;;;5059257;28;20494;-89
2021/07/21 03:35:26;;;;;;;;;;;20.50;65.10;;;;;;5059182;28;19908;-86
2021/07/21 03:37:54;;;;;;;9.18;3.45;;;20.40;65.20;;;;;;5057758;28;19908;-86
2021/07/21 03:40:20;;;;;;;10.90;3.30;;;20.40;64.90;;;;;;5039583;28;20013;-85
2021/07/21 03:42:52;;;;;;;5.63;3.78;;;20.50;64.50;;;;;;5040988;28;20028;-85
2021/07/21 03:45:18;;;;;;;7.82;3.95;;;20.50;64.30;;;;;;5057790;28;20013;-86
2021/07/21 03:47:46;;;;;;;5.38;2.90;;;20.50;63.60;;;;;;5041461;28;20374;-88
2021/07/21 03:50:13;;;;;;;9.43;3.63;;;20.50;63.10;;;;;;5061222;28;20017;-88
2021/07/21 03:52:45;;;;;;;5.93;3.27;;;20.60;62.90;;;;;;5069551;28;20033;-88
2021/07/21 03:55:12;;;;;;;5.65;2.85;;;20.70;62.20;;;;;;5058424;28;20025;-88
2021/07/21 03:57:38;;;;;;;;;;;20.70;61.60;;;;;;5075962;28;20039;-88
2021/07/21 04:00:18;;;;;;;7.55;3.25;;;20.70;61.80;;;;;;5072849;28;19905;-88
2021/07/21 04:02:50;;;;;;;4.35;2.83;;;20.70;61.40;;;;;;5047500;28;20021;-87
2021/07/21 04:05:16;;;;;;;9.38;3.42;;;20.90;60.80;;;;;;5058272;28;20087;-88
2021/07/21 04:07:44;;;;;;;6.72;2.95;;;21.00;60.20;;;;;;5058387;28;20025;-87
2021/07/21 04:10:12;;;;;;;6.78;3.03;;;21.10;59.80;;;;;;5057218;28;20033;-88
2021/07/21 04:12:42;;;;;;;3.90;2.42;;;21.10;59.40;;;;;;5038356;28;20047;-87
2021/07/21 04:15:10;;;;;;;5.82;2.72;;;21.20;59.30;;;;;;5038965;28;20036;-87
2021/07/21 04:17:37;;;;;;;11.35;3.88;;;21.30;59.50;;;;;;5056928;28;20458;-85
2021/07/21 04:20:06;;;;;;;4.63;2.88;;;21.40;59.60;;;;;;5057766;28;20041;-86
2021/07/21 04:22:33;;;;;;;5.15;2.75;;;21.60;58.90;;;;;;5036351;28;20071;-89
2021/07/21 04:25:01;;;;;;;7.30;3.05;;;21.70;57.70;;;;;;5039914;28;20025;-87
2021/07/21 04:27:28;;;;;;;5.03;2.53;;;21.80;57.50;;;;;;5068116;28;20031;-88
2021/07/21 04:29:54;;;;;;;4.10;2.70;;;21.90;56.60;;;;;;5050170;28;20048;-89
2021/07/21 04:32:22;;;;;;;4.73;2.60;;;22.00;56.20;;;;;;5039251;28;20056;-88
2021/07/21 04:34:48;;;;;;;;;;;22.00;55.90;;;;;;5039631;28;20678;-89
2021/07/21 04:37:14;;;;;;;5.90;3.17;;;22.10;56.60;;;;;;5039636;28;19905;-88
2021/07/21 04:39:42;;;;;;;5.65;2.67;;;22.10;56.60;;;;;;5039741;28;20108;-89
2021/07/21 04:42:08;;;;;;;5.60;2.47;;;22.10;55.40;;;;;;5044791;28;20413;-88
2021/07/21 04:44:37;;;;;;;5.15;2.60;;;22.10;55.60;;;;;;5069943;28;20508;-88
2021/07/21 04:47:04;;;;;;;4.85;2.50;;;22.20;54.90;;;;;;5057966;28;20028;-89
2021/07/21 04:49:32;;;;;;;7.00;3.03;;;22.30;54.30;;;;;;5041581;28;20109;-89
2021/07/21 04:52:03;;;;;;;4.43;2.33;;;22.30;54.20;;;;;;5064083;28;20044;-88
2021/07/21 04:54:29;;;;;;;5.78;2.67;;;22.30;53.40;;;;;;5072015;28;20021;-87
2021/07/21 04:56:57;;;;;;;4.13;2.05;;;22.30;53.00;;;;;;5061121;28;20455;-87
2021/07/21 04:59:22;;;;;;;6.03;1.95;;;22.40;53.00;;;;;;5074057;28;20028;-88
2021/07/21 05:01:48;;;;;;;4.22;2.22;;;22.60;52.80;;;;;;5045655;28;20033;-88
2021/07/21 05:04:17;;;;;;;3.70;2.42;;;22.70;52.70;;;;;;5056900;28;20044;-88
2021/07/21 05:06:43;;;;;;;9.15;3.00;;;22.70;52.30;;;;;;5037525;28;20487;-89
2021/07/21 05:09:11;;;;;;;3.97;1.93;;;22.80;52.00;;;;;;5038064;28;20024;-89
2021/07/21 05:11:37;;;;;;;;;;;23.00;51.30;;;;;;5059340;28;20033;-90
2021/07/21 05:14:03;;;;;;;3.65;2.60;;;23.10;51.60;;;;;;5062084;28;19904;-88
2021/07/21 05:16:30;;;;;;;2.72;2.10;;;23.40;51.20;;;;;;5031331;28;20021;-87
2021/07/21 05:18:57;;;;;;;2.67;2.15;;;23.60;50.00;;;;;;5064104;28;20029;-88
2021/07/21 05:21:23;;;;;;;5.90;2.53;;;23.90;49.40;;;;;;5070794;28;20098;-88
2021/07/21 05:23:50;;;;;;;6.60;2.78;;;24.20;48.60;;;;;;5038024;28;20356;-86
2021/07/21 05:26:16;;;;;;;3.42;2.22;;;24.50;47.90;;;;;;5063224;28;20025;-88
2021/07/21 05:28:42;;;;;;;3.47;2.10;;;24.80;47.50;;;;;;5038541;28;20032;-86
2021/07/21 05:31:09;;;;;;;6.65;2.30;;;25.00;46.60;;;;;;5060113;28;20104;-88
2021/07/21 05:33:35;;;;;;;4.25;2.25;;;25.20;46.60;;;;;;5038341;28;20545;-87
2021/07/21 05:36:03;;;;;;;6.72;2.53;;;25.40;45.90;;;;;;5056086;28;20059;-87
2021/07/21 05:38:30;;;;;;;3.33;2.20;;;25.50;45.90;;;;;;5041811;28;20080;-86
2021/07/21 05:40:56;;;;;;;2.67;1.93;;;25.60;45.30;;;;;;5059506;28;20029;-87
2021/07/21 05:43:22;;;;;;;6.53;2.33;;;25.70;45.10;;;;;;5063217;28;20262;-87
2021/07/21 05:45:49;;;;;;;4.03;2.05;;;25.80;45.00;;;;;;5050031;28;20048;-88
2021/07/21 05:48:15;;;;;;;3.05;1.98;;;26.00;44.40;;;;;;5069649;28;20025;-86
2021/07/21 05:50:43;;;;;;;3.95;2.13;;;26.40;44.00;;;;;;5046924;28;20017;-88
2021/07/21 05:53:09;;;;;;;5.88;2.15;;;26.70;43.80;;;;;;5067324;28;20435;-89
2021/07/21 05:55:36;;;;;;;5.22;2.58;;;27.10;43.10;;;;;;5041185;28;20378;-90
2021/07/21 05:58:02;;;;;;;5.90;2.30;;;27.50;42.60;;;;;;5039602;28;20093;-87
2021/07/21 06:00:29;;;;;;;6.32;2.47;;;27.70;42.20;;;;;;5039522;28;20054;-87
2021/07/21 06:02:55;;;;;;;5.82;2.00;;;28.40;41.30;;;;;;5057764;28;20017;-86
2021/07/21 06:05:21;;;;;;;2.17;1.40;;;29.20;39.80;;;;;;5039899;28;20099;-89
2021/07/21 06:07:46;;;;;;;4.13;1.95;;;29.60;38.30;;;;;;5059217;28;20111;-87
2021/07/21 06:10:12;;;;;;;3.08;1.75;;;29.90;38.20;;;;;;5057818;28;20458;-88
2021/07/21 06:12:39;;;;;;;5.00;1.60;;;30.30;37.60;;;;;;5040405;28;20083;-86
2021/07/21 06:15:06;;;;;;;6.07;2.45;;;31.10;37.00;;;;;;5051931;28;20025;-88
2021/07/21 06:17:34;;;;;;;4.63;2.25;;;31.50;36.40;;;;;;5057614;28;20033;-87
2021/07/21 06:20:00;;;;;;;5.60;2.63;;;31.80;36.80;;;;;;5057964;28;20139;-86
2021/07/21 06:22:32;;;;;;;5.55;2.83;;;32.20;36.30;;;;;;5052732;28;20025;-85
2021/07/21 06:24:58;;;;;;;7.53;2.75;;;32.50;35.80;;;;;;5059033;28;20025;-86
2021/07/21 06:27:24;;;;;;;9.85;2.70;;;32.60;35.50;;;;;;5075814;28;20044;-86
2021/07/21 06:29:50;;;;;;;4.53;2.33;;;32.40;35.60;;;;;;5059653;28;20028;-89
2021/07/21 06:32:16;;;;;;;4.22;2.83;;;32.40;35.20;;;;;;5056814;28;20064;-87
2021/07/21 06:34:42;;;;;;;4.13;2.07;;;32.90;35.10;;;;;;5050736;28;20021;-88
2021/07/21 06:37:09;;;;;;;6.47;2.70;;;33.20;34.70;;;;;;5065376;28;20032;-90
2021/07/21 06:39:35;;;;;;;4.47;2.40;;;33.20;34.40;;;;;;5067194;28;20017;-92
2021/07/21 06:42:01;;;;;;;6.57;2.37;;;33.50;34.00;;;;;;5049323;28;20082;-87
2021/07/21 06:44:27;;;;;;;4.07;2.10;;;34.00;34.40;;;;;;5036166;28;20064;-91
2021/07/21 06:46:53;;;;;;;5.87;3.30;;;34.30;33.00;;;;;;5040545;28;20479;-84
2021/07/21 06:49:19;;;;;;;4.77;1.90;;;34.50;32.70;;;;;;5063644;28;20270;-85
2021/07/21 06:51:45;;;;;;;7.40;2.28;;;35.10;32.30;;;;;;5061586;28;20048;-93
2021/07/21 06:54:11;;;;;;;7.53;2.15;;;35.50;32.10;;;;;;5072224;28;20028;-86
2021/07/21 06:56:37;;;;;;;5.00;2.53;;;35.60;31.80;;;;;;5058118;28;20025;-89
2021/07/21 06:59:04;;;;;;;6.45;2.88;;;36.10;31.40;;;;;;5062604;28;20265;-88
2021/07/21 07:01:30;;;;;;;4.10;2.08;;;36.40;31.10;;;;;;5065502;28;20037;-88
2021/07/21 07:03:55;;;;;;;5.07;2.53;;;36.10;31.00;;;;;;5060282;28;20025;-88
2021/07/21 07:06:24;;;;;;;7.80;3.27;;;35.90;31.40;;;;;;5058648;28;20028;-90
2021/07/21 07:08:50;;;;;;;6.68;3.67;;;35.60;31.60;;;;;;5056583;28;20268;-88
2021/07/21 07:11:16;;;;;;;11.73;5.20;;;34.70;32.20;;;;;;5040010;28;20021;-86
2021/07/21 07:13:42;;;;;;;8.80;3.00;;;34.00;33.20;;;;;;5056414;28;20065;-89
2021/07/21 07:16:08;;;;;;;8.20;2.72;;;33.60;33.20;;;;;;5057201;28;20025;-87
2021/07/21 07:18:35;;;;;;;3.63;2.73;;;33.20;33.70;;;;;;5057417;28;20029;-89
2021/07/21 07:21:01;;;;;;;7.60;3.03;;;33.20;34.10;;;;;;5058548;28;20518;-86
2021/07/21 07:23:27;;;;;;;9.30;2.77;;;32.70;34.40;;;;;;5051758;28;20048;-89
2021/07/21 07:25:54;;;;;;;5.53;2.70;;;32.40;34.80;;;;;;5070382;28;20258;-87
2021/07/21 07:28:20;;;;;;;;;;;31.80;35.20;;;;;;5076006;28;20021;-86
2021/07/21 07:30:46;;;;;;;8.77;2.43;;;31.30;35.70;;;;;;5042774;28;19911;-88
2021/07/21 07:33:12;;;;;;;5.47;2.58;;;31.30;36.30;;;;;;5039956;28;20041;-89
2021/07/21 07:35:40;;;;;;;4.40;2.40;;;32.20;35.60;;;;;;5054005;28;20024;-89
2021/07/21 07:38:11;;;;;;;9.23;2.40;;;33.50;34.40;;;;;;5057740;28;20032;-89
2021/07/21 07:40:38;;;;;;;5.85;2.45;;;34.70;32.90;;;;;;5041705;28;20013;-89
2021/07/21 07:43:04;;;;;;;10.20;2.50;;;35.70;32.20;;;;;;5040512;28;20036;-88
2021/07/21 07:45:30;;;;;;;4.03;2.47;;;36.50;31.20;;;;;;5040000;28;20017;-88
2021/07/21 07:47:57;;;;;;;3.65;1.88;;;37.00;30.30;;;;;;5057567;28;20352;-89
2021/07/21 07:50:23;;;;;;;4.85;1.75;;;36.30;30.20;;;;;;5037020;28;20452;-89
2021/07/21 07:52:49;;;;;;;3.22;2.22;;;35.90;30.70;;;;;;5047375;28;20035;-89
2021/07/21 07:55:15;;;;;;;7.03;2.53;;;36.00;30.90;;;;;;5073292;28;20044;-86
2021/07/21 07:57:41;;;;;;;3.15;2.10;;;36.50;30.70;;;;;;5040005;28;20043;-90
2021/07/21 08:00:09;;;;;;;3.90;2.33;;;36.90;30.10;;;;;;5041525;28;20039;-89
2021/07/21 08:02:35;;;;;;;4.55;2.20;;;37.20;30.00;;;;;;5058738;28;20046;-88
2021/07/21 08:05:01;;;;;;;5.13;2.35;;;36.90;29.90;;;;;;5040875;28;20112;-89
2021/07/21 08:07:32;;;;;;;4.82;2.10;;;36.90;30.50;;;;;;5059859;28;20029;-88
2021/07/21 08:09:58;;;;;;;6.55;2.45;;;38.00;29.80;;;;;;5059778;28;20071;-87
2021/07/21 08:12:25;;;;;;;5.68;2.22;;;38.60;29.20;;;;;;5058949;28;20451;-89
2021/07/21 08:14:51;;;;;;;7.82;2.13;;;38.40;29.10;;;;;;5040456;28;20109;-88
2021/07/21 08:17:17;;;;;;;5.43;1.70;;;38.70;29.10;;;;;;5041385;28;20056;-89
2021/07/21 08:19:43;;;;;;;4.55;1.98;;;39.10;28.80;;;;;;5042740;28;20549;-88
2021/07/21 08:22:10;;;;;;;;;;;39.00;28.90;;;;;;5060490;28;20104;-89
2021/07/21 08:24:35;;;;;;;5.65;1.77;;;39.10;29.60;;;;;;5062001;28;19996;-87
2021/07/21 08:27:02;;;;;;;3.30;2.08;;;39.60;28.80;;;;;;5043043;28;20048;-89
2021/07/21 08:29:28;;;;;;;;;;;39.60;28.50;;;;;;5041953;28;20032;-88
2021/07/21 08:31:54;;;;;;;2.42;1.75;;;39.90;29.10;;;;;;5062866;28;19975;-87
2021/07/21 08:34:21;;;;;;;3.28;1.92;;;39.60;28.40;;;;;;5069070;28;20493;-89
2021/07/21 08:36:47;;;;;;;2.42;1.70;;;39.00;28.50;;;;;;5066293;28;20024;-90
2021/07/21 08:39:13;;;;;;;6.82;2.30;;;39.10;28.70;;;;;;5064557;28;20025;-89
2021/07/21 08:41:40;;;;;;;2.30;1.95;;;39.10;28.50;;;;;;5064700;28;20033;-88
2021/07/21 08:44:07;;;;;;;4.38;2.35;;;39.20;28.40;;;;;;5060479;28;20013;-87
2021/07/21 08:46:37;;;;;;;7.18;1.58;;;39.60;28.70;;;;;;5060123;28;20025;-87
2021/07/21 08:49:07;;;;;;;2.92;1.83;;;38.70;28.60;;;;;;5058001;28;20021;-88
2021/07/21 08:51:34;;;;;;;3.35;1.77;;;38.30;29.00;;;;;;5079529;28;20032;-90
2021/07/21 08:54:00;;;;;;;4.90;2.22;;;39.10;28.60;;;;;;5073213;28;20090;-88
2021/07/21 08:56:27;;;;;;;8.98;1.98;;;39.40;28.20;;;;;;5052267;28;20022;-90
2021/07/21 08:58:53;;;;;;;4.88;3.17;;;39.30;28.40;;;;;;5044297;28;20108;-88
2021/07/21 09:01:21;;;;;;;4.80;2.10;;;39.30;28.40;;;;;;5080805;28;20089;-88
2021/07/21 09:03:49;;;;;;;4.10;1.95;;;38.90;28.50;;;;;;5045507;28;20418;-92
2021/07/21 09:06:15;;;;;;;3.45;1.58;;;39.40;28.30;;;;;;5061294;28;20037;-91
2021/07/21 09:08:43;;;;;;;2.88;2.00;;;39.40;28.30;;;;;;5064611;28;20035;-90
2021/07/21 09:11:10;;;;;;;4.85;1.90;;;38.90;28.30;;;;;;5070642;28;20027;-89
2021/07/21 09:13:37;;;;;;;3.75;2.28;;;38.60;28.80;;;;;;5067409;28;20099;-90
2021/07/21 09:16:04;;;;;;;4.05;1.80;;;38.00;28.80;;;;;;5060028;28;20043;-90
2021/07/21 09:18:31;;;;;;;3.92;1.98;;;37.20;29.60;;;;;;5069822;28;20032;-89
2021/07/21 09:20:57;;;;;;;3.55;2.33;;;36.10;30.00;;;;;;5068098;28;20071;-91
2021/07/21 09:23:36;;;;;;;3.63;2.10;;;34.80;31.20;;;;;;5061599;28;20020;-90
2021/07/21 09:26:02;;;;;;;4.85;2.00;;;34.30;32.50;;;;;;5060441;28;20258;-89
2021/07/21 09:28:49;;;;;;;5.75;2.72;;;34.60;32.20;;;;;;5068179;28;20039;-91
2021/07/21 09:31:40;;;;;;;3.83;2.42;;;34.60;31.90;;;;;;5065877;28;20516;-90
2021/07/21 09:34:20;;;;;;;3.50;2.58;;;34.30;32.10;;;;;;5061523;28;20016;-91
2021/07/21 09:36:47;;;;;;;3.80;2.55;;;34.50;33.30;;;;;;5063617;28;20077;-91
2021/07/21 09:39:13;;;;;;;;;;;35.40;31.90;;;;;;5045464;28;20029;-89
2021/07/21 09:41:48;;;;;;;;;;;36.10;31.60;;;;;;5059048;28;19957;-91
2021/07/21 09:44:14;;;;;;;6.18;2.13;;;36.10;31.10;;;;;;5076671;28;20377;-92
2021/07/21 09:46:40;;;;;;;3.97;2.25;;;36.40;30.90;;;;;;5063191;28;20021;-90
2021/07/21 09:49:19;;;;;;;3.67;2.20;;;37.30;30.30;;;;;;5050620;28;20021;-89
2021/07/21 09:51:46;;;;;;;3.85;2.10;;;36.80;30.00;;;;;;5069596;28;20029;-91
2021/07/21 09:54:14;;;;;;;6.85;3.10;;;36.60;30.80;;;;;;5066291;28;20012;-92
2021/07/21 09:56:41;;;;;;;5.60;2.88;;;36.60;30.60;;;;;;5079957;28;20092;-89
2021/07/21 09:59:28;;;;;;;;;;;37.20;30.70;;;;;;5077889;28;20041;-91
2021/07/21 10:01:54;;;;;;;6.35;2.58;;;37.60;30.70;;;;;;5087172;28;19904;-88
2021/07/21 10:04:53;;;;;;;4.80;2.28;;;36.80;29.90;;;;;;5062705;28;20029;-89
2021/07/21 10:10:16;;;;;;;5.40;2.92;;;35.10;31.70;;;;;;5086044;28;20397;-92
2021/07/21 10:12:43;;;;;;;4.40;2.17;;;34.00;32.90;;;;;;5061477;28;20032;-91
2021/07/21 10:15:09;;;;;;;3.63;2.30;;;33.50;33.60;;;;;;5062022;28;20092;-89
2021/07/21 10:17:36;;;;;;;4.68;2.85;;;33.40;33.60;;;;;;5061120;28;20063;-93
2021/07/21 10:20:03;;;;;;;3.28;2.60;;;33.30;34.10;;;;;;5059387;28;20552;-92
2021/07/21 10:22:33;;;;;;;4.93;2.42;;;33.50;34.30;;;;;;5062015;28;20037;-90
2021/07/21 10:24:59;;;;;;;5.45;3.03;;;33.60;34.00;;;;;;5080685;28;20484;-89
2021/07/21 10:27:25;;;;;;;5.87;2.70;;;33.60;33.60;;;;;;5052582;28;20029;-91
2021/07/21 10:29:54;;;;;;;6.60;3.00;;;33.70;33.70;;;;;;5043246;28;20464;-90
2021/07/21 10:32:20;;;;;;;3.95;2.30;;;33.50;33.40;;;;;;5052102;28;20289;-92
2021/07/21 10:34:47;;;;;;;5.78;2.30;;;33.30;33.30;;;;;;5045988;28;20051;-91
2021/07/21 10:37:12;;;;;;;4.95;3.53;;;32.80;33.60;;;;;;5042730;28;20052;-91
2021/07/21 10:39:39;;;;;;;5.57;2.60;;;32.10;34.70;;;;;;5041316;28;20021;-91
2021/07/21 10:42:08;;;;;;;4.43;3.03;;;31.20;35.50;;;;;;5040044;28;20036;-90
2021/07/21 10:44:34;;;;;;;5.38;2.10;;;30.70;36.50;;;;;;5060961;28;20017;-91
2021/07/21 10:47:01;;;;;;;4.28;2.40;;;30.20;36.50;;;;;;5078097;28;20380;-91
2021/07/21 10:49:45;;;;;;;4.25;2.63;;;29.70;37.10;;;;;;5081791;28;20027;-89
2021/07/21 10:55:02;;;;;;;6.30;2.15;;;29.30;36.70;;;;;;5065069;28;20047;-90
2021/07/21 11:00:42;;;;;;;7.30;3.05;;;28.70;36.30;;;;;;5091622;28;20043;-88
2021/07/21 11:03:18;;;;;;;5.10;2.58;;;28.40;36.90;;;;;;5079096;28;20031;-87
2021/07/21 11:05:48;;;;;;;4.60;3.30;;;28.50;37.50;;;;;;5054387;28;20087;-90
2021/07/21 11:08:19;;;;;;;5.93;2.92;;;28.50;37.30;;;;;;5060004;28;20087;-88
2021/07/21 11:10:47;;;;;;;7.30;3.10;;;28.50;36.50;;;;;;5077936;28;20369;-88
2021/07/21 11:13:35;;;;;;;4.28;2.95;;;28.30;36.90;;;;;;5072349;28;20040;-91
2021/07/21 11:16:03;;;;;;;6.57;3.47;;;28.20;37.50;;;;;;5043365;28;20033;-88
2021/07/21 11:18:35;;;;;;;4.78;3.60;;;28.10;37.70;;;;;;5057039;28;20108;-91
2021/07/21 11:21:15;;;;;;;8.75;3.58;;;28.00;38.20;;;;;;5044155;28;20055;-89
2021/07/21 11:23:57;;;;;;;4.93;2.55;;;28.10;38.40;;;;;;5039590;28;20036;-90
2021/07/21 11:26:34;;;;;;;5.10;3.08;;;28.10;37.30;;;;;;5039551;28;20509;-91
2021/07/21 11:29:25;;;;;;;4.10;2.67;;;28.00;37.20;;;;;;5058928;28;20112;-92
2021/07/21 11:31:54;;;;;;;3.33;2.63;;;27.90;37.80;;;;;;5059317;28;20041;-91
2021/07/21 11:34:35;;;;;;;6.60;2.75;;;27.90;37.80;;;;;;5063550;28;20033;-92
2021/07/21 11:37:25;;;;;;;6.28;3.15;;;27.90;37.70;;;;;;5063233;28;20040;-89
2021/07/21 11:39:56;;;;;;;6.43;3.35;;;28.00;38.20;;;;;;5071686;28;20040;-88
2021/07/21 11:42:33;;;;;;;6.38;3.08;;;27.90;37.80;;;;;;5085245;28;20487;-88
2021/07/21 11:45:13;;;;;;;;;;;27.70;37.50;;;;;;5062869;28;20025;-91
2021/07/21 11:47:56;;;;;;;5.45;2.90;;;27.70;37.60;;;;;;5044060;28;20413;-92
2021/07/21 11:50:33;;;;;;;3.42;2.95;;;27.70;38.20;;;;;;5075998;28;20024;-92
2021/07/21 11:53:01;;;;;;;5.00;3.47;;;27.80;37.90;;;;;;5052879;28;20494;-90
2021/07/21 11:55:30;;;;;;;6.45;3.35;;;27.80;38.20;;;;;;5062833;28;20021;-91
2021/07/21 11:57:57;;;;;;;4.88;2.85;;;27.70;38.00;;;;;;5060719;28;20104;-90
2021/07/21 12:00:24;;;;;;;6.65;2.97;;;27.80;38.70;;;;;;5061703;28;20031;-89
2021/07/21 12:03:01;;;;;;;4.05;2.70;;;27.90;37.60;;;;;;5041605;28;20037;-90
2021/07/21 12:05:27;;;;;;;5.97;2.83;;;27.80;37.40;;;;;;5042612;28;20056;-91
2021/07/21 12:07:58;;;;;;;5.07;2.60;;;27.60;35.90;;;;;;5067205;28;20055;-88
2021/07/21 12:10:24;;;;;;;4.28;2.63;;;27.60;36.40;;;;;;5047278;28;20071;-90
2021/07/21 12:12:53;;;;;;;4.97;3.35;;;27.60;36.80;;;;;;5043107;28;20033;-91
2021/07/21 12:15:19;;;;;;;3.55;3.25;;;27.70;37.80;;;;;;5043574;28;20429;-88
2021/07/21 12:17:47;;;;;;;6.60;3.03;;;27.70;37.60;;;;;;5061545;28;20086;-91
2021/07/21 12:20:16;;;;;;;3.72;2.72;;;27.70;36.70;;;;;;5060476;28;20049;-91
2021/07/21 12:22:45;;;;;;;4.50;2.65;;;27.60;36.60;;;;;;5063876;28;20470;-91
2021/07/21 12:25:14;;;;;;;4.30;2.50;;;27.60;37.10;;;;;;5075718;28;20029;-89
2021/07/21 12:27:49;;;;;;;5.28;3.10;;;27.60;37.10;;;;;;5070448;28;20033;-91
2021/07/21 12:30:18;;;;;;;4.10;2.55;;;27.50;37.10;;;;;;5085696;28;20042;-89
2021/07/21 12:32:50;;;;;;;3.30;2.92;;;27.40;37.20;;;;;;5071329;28;20033;-89
2021/07/21 12:35:18;;;;;;;3.42;2.47;;;27.40;37.30;;;;;;5062705;28;20018;-90
2021/07/21 12:37:49;;;;;;;6.15;2.75;;;27.50;36.90;;;;;;5060932;28;20094;-89
2021/07/21 12:40:19;;;;;;;3.90;2.70;;;27.40;36.70;;;;;;5058881;28;20036;-87
2021/07/21 12:42:46;;;;;;;5.55;3.33;;;27.40;36.80;;;;;;5044000;28;20077;-89
2021/07/21 12:45:14;;;;;;;3.45;2.80;;;27.30;37.00;;;;;;5060230;28;20157;-90
2021/07/21 12:47:46;;;;;;;5.57;2.58;;;27.30;37.70;;;;;;5041676;28;20059;-88
2021/07/21 12:50:17;;;;;;;4.75;2.80;;;27.20;37.70;;;;;;5061263;28;20059;-91
2021/07/21 12:52:53;;;;;;;6.15;2.47;;;27.00;37.90;;;;;;5050851;28;20029;-90
2021/07/21 12:55:32;;;;;;;5.50;3.35;;;27.00;38.80;;;;;;5033750;28;20058;-90
2021/07/21 12:57:59;;;;;;;4.25;2.53;;;26.90;38.70;;;;;;5071864;28;20099;-93
2021/07/21 13:00:26;;;;;;;;;;;26.70;38.90;;;;;;5048921;28;20099;-89
2021/07/21 13:03:09;;;;;;;5.93;2.60;;;26.50;38.80;;;;;;5053704;28;20449;-90
2021/07/21 13:05:47;;;;;;;4.03;2.58;;;26.40;39.60;;;;;;5064326;28;20033;-89
2021/07/21 13:08:20;;;;;;;4.45;2.92;;;26.40;39.50;;;;;;5062813;28;20025;-88
2021/07/21 13:11:01;;;;;;;3.45;2.80;;;26.30;39.40;;;;;;5046348;28;20481;-89